createdAt,value
2018-09-20T00:01:13.460Z,92.10
2018-09-20T00:03:41.809Z,92.20
2018-09-20T00:06:10.127Z,92.10
2018-09-20T00:08:38.307Z,92.20
2018-09-20T00:11:06.770Z,92.30
2018-09-20T00:13:35.778Z,92.30
2018-09-20T00:16:03.987Z,92.30
2018-09-20T00:18:32.551Z,92.50
2018-09-20T00:21:00.744Z,92.20
2018-09-20T00:23:28.955Z,92.20
2018-09-20T00:25:57.200Z,92.20
2018-09-20T00:28:25.775Z,92.00
2018-09-20T00:30:54.131Z,91.90
2018-09-20T00:33:22.516Z,91.90
2018-09-20T00:35:50.751Z,92.10
2018-09-20T00:38:19.161Z,92.00
2018-09-20T00:40:47.422Z,92.10
2018-09-20T00:43:16.214Z,91.80
2018-09-20T00:45:44.439Z,91.80
2018-09-20T00:48:12.627Z,91.80
2018-09-20T00:50:41.063Z,91.90
2018-09-20T00:53:09.258Z,91.90
2018-09-20T00:55:37.604Z,92.00
2018-09-20T00:58:05.851Z,92.00
2018-09-20T01:00:34.066Z,92.00
2018-09-20T01:03:02.243Z,92.00
2018-09-20T01:05:30.463Z,92.10
2018-09-20T01:07:58.760Z,92.00
2018-09-20T01:10:27.061Z,92.10
2018-09-20T01:12:55.445Z,92.10
2018-09-20T01:15:23.851Z,92.10
2018-09-20T01:17:52.186Z,92.10
2018-09-20T01:20:20.418Z,92.00
2018-09-20T01:22:48.567Z,92.00
2018-09-20T01:25:16.935Z,92.10
2018-09-20T01:27:45.167Z,92.10
2018-09-20T01:30:13.666Z,92.10
2018-09-20T01:32:41.846Z,92.30
2018-09-20T01:35:10.328Z,92.10
2018-09-20T01:37:38.499Z,92.10
2018-09-20T01:40:06.691Z,92.10
2018-09-20T01:42:35.031Z,92.20
2018-09-20T01:45:03.268Z,92.20
2018-09-20T01:47:31.427Z,92.30
2018-09-20T01:50:00.239Z,92.30
2018-09-20T01:52:28.395Z,92.40
2018-09-20T01:54:56.811Z,92.20
2018-09-20T01:57:25.347Z,92.20
2018-09-20T01:59:53.626Z,92.20
2018-09-20T02:02:21.907Z,92.30
2018-09-20T02:04:50.510Z,92.10
2018-09-20T02:07:18.960Z,92.00
2018-09-20T02:09:47.202Z,92.20
2018-09-20T02:12:15.535Z,92.20
2018-09-20T02:14:43.936Z,92.50
2018-09-20T02:17:12.132Z,92.30
2018-09-20T02:19:40.303Z,92.60
2018-09-20T02:22:08.466Z,92.50
2018-09-20T02:24:36.733Z,92.10
2018-09-20T02:27:05.386Z,92.20
2018-09-20T02:29:33.660Z,92.30
2018-09-20T02:32:01.827Z,92.40
2018-09-20T02:34:29.980Z,92.40
2018-09-20T02:36:58.155Z,92.20
2018-09-20T02:39:26.607Z,92.20
2018-09-20T02:41:54.902Z,92.20
2018-09-20T02:44:23.173Z,92.30
2018-09-20T02:46:51.343Z,92.20
2018-09-20T02:49:19.535Z,92.10
2018-09-20T02:51:47.741Z,92.00
2018-09-20T02:54:15.911Z,92.00
2018-09-20T02:56:44.189Z,92.10
2018-09-20T02:59:12.436Z,92.10
2018-09-20T03:01:40.979Z,92.00
2018-09-20T03:04:09.255Z,92.10
2018-09-20T03:06:37.605Z,92.00
2018-09-20T03:09:08.279Z,92.00
2018-09-20T03:11:36.449Z,91.90
2018-09-20T03:14:04.607Z,92.00
2018-09-20T03:16:32.987Z,92.10
2018-09-20T03:19:01.205Z,92.30
2018-09-20T03:21:29.452Z,92.10
2018-09-20T03:23:57.864Z,92.10
2018-09-20T03:26:26.275Z,92.10
2018-09-20T03:28:54.679Z,92.20
2018-09-20T03:31:22.889Z,92.20
2018-09-20T03:33:51.074Z,92.10
2018-09-20T03:36:19.391Z,92.10
2018-09-20T03:38:47.683Z,92.10
2018-09-20T03:41:15.943Z,92.00
2018-09-20T03:43:44.271Z,92.10
2018-09-20T03:46:12.432Z,92.20
2018-09-20T03:48:40.625Z,92.10
2018-09-20T03:51:08.751Z,92.60
2018-09-20T03:53:36.925Z,92.20
2018-09-20T03:56:05.226Z,92.20
2018-09-20T03:58:33.502Z,92.20
2018-09-20T04:01:01.883Z,92.20
2018-09-20T04:03:30.048Z,92.20
2018-09-20T04:05:58.210Z,92.30
2018-09-20T04:08:26.421Z,92.30
2018-09-20T04:10:54.640Z,92.20
2018-09-20T04:13:23.038Z,92.00
2018-09-20T04:15:51.323Z,92.00
2018-09-20T04:18:19.482Z,92.20
2018-09-20T04:20:47.635Z,92.30
2018-09-20T04:23:15.986Z,92.40
2018-09-20T04:25:44.259Z,92.30
2018-09-20T04:28:12.487Z,92.20
2018-09-20T04:30:40.892Z,92.20
2018-09-20T04:33:09.339Z,92.30
2018-09-20T04:35:37.547Z,92.50
2018-09-20T04:38:05.716Z,92.20
2018-09-20T04:40:33.895Z,92.30
2018-09-20T04:43:02.071Z,92.50
2018-09-20T04:45:30.360Z,92.60
2018-09-20T04:47:58.683Z,92.50
2018-09-20T04:50:26.847Z,92.60
2018-09-20T04:52:55.007Z,92.30
2018-09-20T04:55:23.195Z,92.20
2018-09-20T04:57:51.346Z,92.20
2018-09-20T05:00:19.524Z,92.30
2018-09-20T05:02:47.948Z,92.20
2018-09-20T05:05:16.154Z,92.30
2018-09-20T05:07:44.323Z,92.20
2018-09-20T05:10:12.746Z,92.10
2018-09-20T05:12:40.993Z,92.40
2018-09-20T05:15:09.243Z,92.50
2018-09-20T05:17:37.519Z,92.50
2018-09-20T05:20:06.016Z,92.70
2018-09-20T05:22:34.199Z,92.60
2018-09-20T05:25:02.363Z,92.70
2018-09-20T05:27:31.599Z,92.50
2018-09-20T05:29:59.899Z,92.60
2018-09-20T05:32:28.212Z,92.50
2018-09-20T05:34:56.495Z,92.60
2018-09-20T05:37:24.690Z,92.70
2018-09-20T05:39:52.892Z,92.70
2018-09-20T05:42:21.100Z,92.80
2018-09-20T05:44:49.263Z,92.60
2018-09-20T05:47:17.417Z,92.70
2018-09-20T05:49:45.679Z,92.80
2018-09-20T05:52:13.859Z,92.90
2018-09-20T05:54:42.023Z,92.80
2018-09-20T05:57:10.186Z,93.10
2018-09-20T05:59:38.346Z,93.00
2018-09-20T06:02:06.519Z,93.00
2018-09-20T06:04:35.638Z,93.00
2018-09-20T06:07:04.108Z,93.10
2018-09-20T06:09:32.423Z,93.00
2018-09-20T06:12:01.236Z,93.00
2018-09-20T06:14:29.518Z,93.00
2018-09-20T06:16:57.796Z,93.00
2018-09-20T06:19:26.038Z,93.00
2018-09-20T06:21:54.234Z,93.00
2018-09-20T06:24:22.390Z,92.90
2018-09-20T06:26:50.554Z,93.00
2018-09-20T06:29:18.718Z,92.60
2018-09-20T06:31:46.938Z,92.40
2018-09-20T06:34:15.511Z,91.90
2018-09-20T06:36:43.722Z,91.80
2018-09-20T06:39:12.850Z,91.80
2018-09-20T06:41:41.962Z,91.50
2018-09-20T06:44:11.163Z,91.30
2018-09-20T06:46:39.404Z,91.30
2018-09-20T06:49:07.620Z,91.30
2018-09-20T06:51:35.880Z,91.30
2018-09-20T06:54:04.351Z,91.20
2018-09-20T06:56:33.086Z,90.60
2018-09-20T06:59:01.515Z,90.60
2018-09-20T07:01:29.711Z,90.60
2018-09-20T07:03:58.606Z,90.60
2018-09-20T07:06:26.855Z,90.40
2018-09-20T07:08:55.779Z,90.20
2018-09-20T07:11:24.199Z,90.20
2018-09-20T07:13:52.379Z,89.70
2018-09-20T07:16:20.578Z,89.00
2018-09-20T07:18:48.835Z,88.70
2018-09-20T07:21:17.210Z,88.40
2018-09-20T07:23:45.619Z,88.10
2018-09-20T07:26:13.835Z,87.20
2018-09-20T07:28:42.023Z,86.40
2018-09-20T07:31:10.267Z,86.70
2018-09-20T07:33:38.518Z,87.20
2018-09-20T07:36:06.518Z,85.10
2018-09-20T07:38:34.703Z,84.80
2018-09-20T07:41:02.899Z,84.90
2018-09-20T07:43:31.130Z,84.00
2018-09-20T07:45:59.327Z,83.30
2018-09-20T07:48:27.512Z,83.00
2018-09-20T07:50:55.719Z,83.00
2018-09-20T07:53:23.920Z,82.60
2018-09-20T07:55:52.107Z,82.90
2018-09-20T07:58:20.329Z,82.80
2018-09-20T08:00:48.614Z,82.50
2018-09-20T08:03:16.846Z,81.40
2018-09-20T08:05:45.064Z,81.00
2018-09-20T08:08:13.263Z,80.20
2018-09-20T08:10:41.479Z,79.50
2018-09-20T08:13:09.699Z,79.20
2018-09-20T08:15:38.247Z,79.50
2018-09-20T08:18:06.963Z,78.70
2018-09-20T08:20:35.162Z,79.70
2018-09-20T08:23:03.359Z,78.90
2018-09-20T08:25:31.739Z,79.60
2018-09-20T08:27:59.939Z,79.10
2018-09-20T08:30:28.159Z,77.00
2018-09-20T08:32:56.383Z,76.50
2018-09-20T08:35:24.626Z,76.90
2018-09-20T08:37:52.976Z,77.40
2018-09-20T08:40:21.302Z,76.20
2018-09-20T08:42:49.499Z,75.30
2018-09-20T08:45:17.733Z,76.00
2018-09-20T08:47:46.008Z,76.30
2018-09-20T08:50:14.233Z,77.30
2018-09-20T08:52:42.678Z,74.40
2018-09-20T08:55:10.868Z,73.60
2018-09-20T08:57:44.489Z,73.10
2018-09-20T09:00:12.703Z,73.60
2018-09-20T09:02:41.291Z,73.00
2018-09-20T09:05:09.488Z,72.60
2018-09-20T09:07:37.687Z,72.90
2018-09-20T09:10:06.083Z,72.50
2018-09-20T09:12:34.287Z,73.10
2018-09-20T09:15:02.478Z,69.80
2018-09-20T09:17:30.791Z,69.70
2018-09-20T09:19:59.115Z,70.00
2018-09-20T09:22:27.347Z,70.90
2018-09-20T09:24:55.992Z,69.70
2018-09-20T09:27:24.183Z,69.50
2018-09-20T09:29:52.379Z,68.80
2018-09-20T09:32:20.579Z,68.40
2018-09-20T09:34:48.967Z,69.10
2018-09-20T09:37:17.903Z,69.80
2018-09-20T09:39:46.083Z,68.90
2018-09-20T09:42:14.352Z,69.70
2018-09-20T09:44:42.510Z,67.70
2018-09-20T09:47:10.707Z,68.70
2018-09-20T09:49:38.911Z,68.30
2018-09-20T09:52:07.094Z,68.00
2018-09-20T09:54:35.285Z,65.30
2018-09-20T09:57:03.506Z,66.80
2018-09-20T09:59:31.729Z,68.40
2018-09-20T10:01:59.919Z,67.20
2018-09-20T10:04:28.127Z,64.40
2018-09-20T10:06:56.639Z,63.60
2018-09-20T10:09:24.787Z,64.10
2018-09-20T10:11:53.068Z,63.80
2018-09-20T10:14:21.259Z,62.80
2018-09-20T10:16:49.439Z,62.70
2018-09-20T10:19:17.635Z,65.00
2018-09-20T10:21:45.863Z,63.50
2018-09-20T10:24:14.059Z,63.20
2018-09-20T10:26:42.251Z,61.30
2018-09-20T10:29:10.447Z,60.80
2018-09-20T10:31:38.643Z,62.00
2018-09-20T10:34:06.899Z,61.70
2018-09-20T10:36:35.068Z,60.80
2018-09-20T10:39:03.583Z,61.60
2018-09-20T10:41:31.747Z,61.20
2018-09-20T10:43:59.915Z,57.30
2018-09-20T10:46:28.343Z,57.60
2018-09-20T10:48:56.503Z,55.10
2018-09-20T10:51:25.215Z,58.20
2018-09-20T10:53:53.379Z,57.40
2018-09-20T10:56:21.543Z,56.10
2018-09-20T10:58:49.943Z,55.70
2018-09-20T11:01:18.108Z,55.60
2018-09-20T11:03:46.652Z,55.10
2018-09-20T11:06:15.102Z,53.40
2018-09-20T11:08:43.305Z,49.80
2018-09-20T11:11:11.501Z,53.30
2018-09-20T11:13:39.684Z,51.80
2018-09-20T11:16:07.851Z,48.40
2018-09-20T11:18:36.020Z,48.10
2018-09-20T11:21:04.167Z,50.40
2018-09-20T11:23:32.326Z,49.20
2018-09-20T11:26:00.534Z,50.40
2018-09-20T11:28:28.690Z,47.80
2018-09-20T11:30:57.166Z,47.80
2018-09-20T11:33:25.334Z,48.70
2018-09-20T11:35:53.539Z,50.50
2018-09-20T11:38:21.723Z,46.40
2018-09-20T11:40:49.915Z,47.00
2018-09-20T11:43:18.107Z,50.20
2018-09-20T11:45:46.512Z,47.60
2018-09-20T11:48:14.727Z,49.40
2018-09-20T11:50:42.992Z,50.00
2018-09-20T11:53:11.186Z,47.30
2018-09-20T11:55:39.387Z,45.10
2018-09-20T11:58:09.663Z,45.80
2018-09-20T12:00:37.919Z,44.40
2018-09-20T12:03:06.127Z,43.80
2018-09-20T12:05:34.332Z,43.60
2018-09-20T12:08:02.496Z,43.30
2018-09-20T12:10:30.662Z,42.50
2018-09-20T12:12:58.819Z,42.00
2018-09-20T12:15:26.980Z,42.10
2018-09-20T12:17:55.135Z,43.20
2018-09-20T12:20:23.481Z,43.10
2018-09-20T12:22:51.676Z,44.50
2018-09-20T12:25:19.872Z,43.50
2018-09-20T12:27:48.024Z,44.70
2018-09-20T12:30:16.195Z,42.90
2018-09-20T12:32:44.413Z,43.40
2018-09-20T12:35:12.523Z,41.00
2018-09-20T12:37:40.707Z,45.00
2018-09-20T12:40:09.271Z,44.90
2018-09-20T12:42:37.473Z,44.20
2018-09-20T12:45:05.704Z,43.60
2018-09-20T12:47:34.359Z,43.00
2018-09-20T12:50:02.561Z,42.00
2018-09-20T12:52:30.794Z,44.40
2018-09-20T12:54:59.040Z,42.20
2018-09-20T12:57:27.253Z,44.10
2018-09-20T12:59:55.480Z,44.40
2018-09-20T13:02:23.705Z,43.80
2018-09-20T13:04:52.059Z,43.20
2018-09-20T13:07:21.338Z,43.00
2018-09-20T13:09:49.635Z,39.70
2018-09-20T13:12:18.095Z,42.40
2018-09-20T13:14:46.491Z,41.20
2018-09-20T13:17:14.751Z,44.00
2018-09-20T13:19:43.287Z,42.10
2018-09-20T13:22:11.479Z,43.10
2018-09-20T13:24:39.687Z,42.20
2018-09-20T13:27:07.897Z,41.00
2018-09-20T13:29:36.091Z,40.00
2018-09-20T13:32:04.323Z,40.30
2018-09-20T13:34:32.531Z,41.70
2018-09-20T13:37:00.749Z,42.60
2018-09-20T13:39:28.961Z,39.90
2018-09-20T13:41:57.193Z,40.60
2018-09-20T13:44:25.408Z,42.30
2018-09-20T13:46:53.622Z,43.70
2018-09-20T13:49:21.831Z,43.70
2018-09-20T13:51:50.027Z,44.40
2018-09-20T13:54:18.211Z,45.10
2018-09-20T13:56:46.407Z,43.50
2018-09-20T13:59:14.603Z,45.00
2018-09-20T14:01:42.811Z,43.80
2018-09-20T14:04:11.011Z,47.00
2018-09-20T14:07:04.148Z,44.30
2018-09-20T14:09:32.343Z,42.60
2018-09-20T14:12:00.552Z,44.60
2018-09-20T14:14:28.774Z,45.40
2018-09-20T14:16:57.128Z,43.70
2018-09-20T14:19:25.355Z,45.00
2018-09-20T14:21:53.562Z,46.50
2018-09-20T14:24:21.772Z,47.40
2018-09-20T14:26:49.966Z,45.70
2018-09-20T14:29:18.138Z,46.10
2018-09-20T14:31:46.341Z,44.90
2018-09-20T14:34:14.531Z,46.30
2018-09-20T14:36:42.762Z,46.10
2018-09-20T14:39:11.719Z,45.50
2018-09-20T14:41:40.480Z,44.40
2018-09-20T14:44:08.848Z,46.30
2018-09-20T14:46:37.615Z,44.70
2018-09-20T14:49:05.829Z,48.30
2018-09-20T14:51:33.997Z,46.50
2018-09-20T14:54:02.659Z,46.20
2018-09-20T14:56:30.840Z,45.60
2018-09-20T14:58:59.051Z,45.80
2018-09-20T15:01:27.227Z,46.90
2018-09-20T15:03:55.383Z,46.60
2018-09-20T15:06:23.583Z,48.20
2018-09-20T15:08:52.043Z,48.60
2018-09-20T15:11:20.211Z,49.50
2018-09-20T15:13:48.782Z,50.30
2018-09-20T15:16:16.963Z,50.20
2018-09-20T15:18:45.123Z,50.60
2018-09-20T15:21:13.507Z,50.20
2018-09-20T15:23:41.713Z,49.30
2018-09-20T15:26:09.928Z,50.60
2018-09-20T15:28:38.105Z,51.10
2018-09-20T15:31:06.519Z,51.00
2018-09-20T15:33:34.704Z,49.90
2018-09-20T15:36:02.899Z,50.70
2018-09-20T15:38:31.414Z,50.70
2018-09-20T15:40:59.607Z,52.30
2018-09-20T15:43:27.815Z,50.90
2018-09-20T15:45:56.023Z,50.60
2018-09-20T15:48:24.220Z,50.90
2018-09-20T15:50:52.443Z,50.50
2018-09-20T15:53:20.651Z,50.40
2018-09-20T15:55:48.840Z,50.80
2018-09-20T15:58:17.091Z,50.60
2018-09-20T16:00:45.297Z,53.00
2018-09-20T16:03:13.504Z,53.20
2018-09-20T16:05:41.697Z,52.00
2018-09-20T16:08:09.883Z,52.80
2018-09-20T16:10:38.074Z,55.60
2018-09-20T16:13:06.269Z,54.60
2018-09-20T16:15:34.459Z,53.80
2018-09-20T16:18:02.642Z,53.10
2018-09-20T16:20:30.839Z,55.30
2018-09-20T16:22:59.055Z,56.40
2018-09-20T16:25:27.248Z,56.40
2018-09-20T16:28:00.955Z,58.00
2018-09-20T16:30:50.325Z,57.40
2018-09-20T16:33:29.142Z,57.70
2018-09-20T16:36:06.815Z,59.40
2018-09-20T16:38:43.987Z,58.70
2018-09-20T16:41:13.990Z,59.50
2018-09-20T16:43:42.183Z,60.00
2018-09-20T16:46:10.367Z,59.60
2018-09-20T16:48:38.679Z,60.60
2018-09-20T16:51:06.855Z,61.40
2018-09-20T16:53:35.060Z,60.80
2018-09-20T16:56:03.283Z,62.60
2018-09-20T16:58:31.641Z,64.00
2018-09-20T17:00:59.844Z,64.40
2018-09-20T17:03:28.032Z,64.60
2018-09-20T17:05:56.207Z,67.30
2018-09-20T17:08:24.427Z,67.50
2018-09-20T17:10:52.612Z,67.40
2018-09-20T17:13:20.853Z,67.30
2018-09-20T17:15:49.163Z,68.40
2018-09-20T17:18:17.631Z,69.00
2018-09-20T17:20:45.830Z,69.00
2018-09-20T17:23:14.091Z,69.20
2018-09-20T17:25:42.283Z,70.80
2018-09-20T17:28:10.487Z,70.50
2018-09-20T17:30:38.701Z,71.00
2018-09-20T17:33:06.945Z,71.60
2018-09-20T17:35:35.988Z,72.10
2018-09-20T17:38:04.727Z,72.40
2018-09-20T17:40:34.763Z,72.50
2018-09-20T17:43:06.703Z,73.50
2018-09-20T17:45:34.860Z,74.30
2018-09-20T17:48:03.016Z,74.00
2018-09-20T17:50:31.175Z,74.20
2018-09-20T17:52:59.770Z,75.10
2018-09-20T17:55:28.307Z,75.60
2018-09-20T17:57:56.907Z,75.70
2018-09-20T18:00:25.347Z,75.30
2018-09-20T18:02:54.365Z,75.60
2018-09-20T18:05:23.536Z,76.30
2018-09-20T18:07:52.040Z,76.40
2018-09-20T18:10:20.238Z,77.10
2018-09-20T18:12:48.409Z,77.30
2018-09-20T18:15:16.588Z,77.10
2018-09-20T18:17:44.787Z,77.90
2018-09-20T18:20:12.915Z,78.10
2018-09-20T18:22:41.346Z,78.20
2018-09-20T18:25:09.515Z,77.80
2018-09-20T18:27:37.669Z,78.50
2018-09-20T18:30:06.110Z,78.20
2018-09-20T18:32:34.268Z,78.70
2018-09-20T18:35:02.439Z,79.00
2018-09-20T18:37:32.330Z,79.50
2018-09-20T18:40:00.527Z,79.50
2018-09-20T18:42:28.706Z,79.50
2018-09-20T18:44:56.884Z,80.00
2018-09-20T18:47:25.062Z,80.20
2018-09-20T18:49:53.307Z,80.20
2018-09-20T18:52:21.439Z,80.80
2018-09-20T18:54:49.597Z,81.10
2018-09-20T18:57:17.756Z,81.30
2018-09-20T18:59:45.911Z,81.70
2018-09-20T19:02:14.075Z,81.50
2018-09-20T19:04:42.229Z,81.60
2018-09-20T19:07:10.387Z,82.40
2018-09-20T19:09:38.563Z,82.30
2018-09-20T19:12:06.722Z,81.80
2018-09-20T19:14:34.903Z,82.50
2018-09-20T19:17:03.079Z,82.50
2018-09-20T19:19:31.231Z,82.30
2018-09-20T19:21:59.447Z,82.50
2018-09-20T19:24:27.648Z,82.80
2018-09-20T19:26:55.833Z,83.10
2018-09-20T19:29:23.984Z,83.20
2018-09-20T19:31:52.203Z,83.40
2018-09-20T19:34:20.311Z,83.40
2018-09-20T19:36:48.518Z,83.40
2018-09-20T19:39:16.711Z,83.70
2018-09-20T19:41:44.896Z,83.30
2018-09-20T19:44:13.434Z,83.40
2018-09-20T19:46:41.603Z,83.70
2018-09-20T19:49:09.788Z,84.00
2018-09-20T19:51:38.051Z,83.90
2018-09-20T19:54:06.211Z,84.30
2018-09-20T19:56:34.402Z,84.50
2018-09-20T19:59:02.624Z,84.30
2018-09-20T20:01:30.852Z,84.90
2018-09-20T20:03:59.039Z,85.50
2018-09-20T20:06:27.231Z,85.10
2018-09-20T20:08:55.640Z,85.40
2018-09-20T20:11:23.855Z,85.50
2018-09-20T20:13:52.403Z,85.60
2018-09-20T20:16:20.593Z,85.40
2018-09-20T20:18:48.784Z,85.80
2018-09-20T20:21:17.283Z,86.10
2018-09-20T20:23:45.602Z,86.10
2018-09-20T20:26:14.056Z,86.60
2018-09-20T20:28:42.207Z,86.60
2018-09-20T20:31:10.383Z,86.50
2018-09-20T20:33:38.592Z,86.40
2018-09-20T20:36:06.781Z,86.80
2018-09-20T20:38:35.079Z,86.80
2018-09-20T20:41:03.235Z,87.00
2018-09-20T20:43:31.403Z,87.00
2018-09-20T20:45:59.563Z,87.50
2018-09-20T20:48:27.746Z,87.50
2018-09-20T20:50:55.907Z,87.60
2018-09-20T20:53:24.075Z,87.80
2018-09-20T20:55:52.247Z,87.90
2018-09-20T20:58:20.737Z,88.10
2018-09-20T21:00:48.879Z,88.20
2018-09-20T21:03:17.060Z,87.80
2018-09-20T21:05:45.215Z,87.80
2018-09-20T21:08:13.399Z,88.00
2018-09-20T21:10:41.567Z,88.30
2018-09-20T21:13:09.734Z,88.40
2018-09-20T21:15:37.909Z,88.50
2018-09-20T21:18:06.432Z,88.20
2018-09-20T21:20:34.657Z,88.40
2018-09-20T21:23:02.872Z,88.70
2018-09-20T21:25:31.087Z,89.00
2018-09-20T21:27:59.281Z,89.00
2018-09-20T21:30:27.435Z,89.10
2018-09-20T21:32:55.599Z,89.10
2018-09-20T21:35:23.755Z,89.10
2018-09-20T21:37:51.924Z,89.50
2018-09-20T21:40:20.222Z,89.40
2018-09-20T21:42:48.370Z,89.60
2018-09-20T21:45:16.544Z,89.10
2018-09-20T21:47:44.910Z,89.10
2018-09-20T21:50:13.259Z,88.80
2018-09-20T21:52:41.440Z,89.20
2018-09-20T21:55:09.595Z,89.30
2018-09-20T21:57:37.791Z,89.40
2018-09-20T22:00:06.952Z,89.80
2018-09-20T22:03:11.274Z,89.80
2018-09-20T22:05:39.443Z,89.60
2018-09-20T22:08:07.631Z,90.10
2018-09-20T22:10:35.791Z,89.80
2018-09-20T22:13:03.950Z,89.80
2018-09-20T22:15:32.379Z,89.70
2018-09-20T22:18:00.558Z,89.60
2018-09-20T22:20:29.862Z,89.60
2018-09-20T22:22:58.088Z,89.60
2018-09-20T22:25:26.507Z,89.70
2018-09-20T22:27:54.667Z,90.10
2018-09-20T22:30:22.848Z,90.30
2018-09-20T22:32:51.036Z,90.00
2018-09-20T22:35:19.245Z,90.20
2018-09-20T22:37:47.452Z,90.00
2018-09-20T22:40:15.660Z,90.00
2018-09-20T22:42:44.164Z,90.10
2018-09-20T22:45:12.351Z,90.30
2018-09-20T22:47:40.542Z,90.20
2018-09-20T22:50:08.735Z,90.40
2018-09-20T22:52:37.215Z,90.30
2018-09-20T22:55:05.607Z,90.30
2018-09-20T22:57:33.812Z,90.30
2018-09-20T23:00:02.039Z,90.40
2018-09-20T23:02:30.226Z,90.40
2018-09-20T23:04:58.419Z,90.40
2018-09-20T23:07:26.660Z,90.40
2018-09-20T23:09:54.889Z,90.40
2018-09-20T23:12:23.100Z,90.20
2018-09-20T23:14:51.658Z,90.30
2018-09-20T23:17:19.851Z,90.30
2018-09-20T23:19:48.049Z,90.40
2018-09-20T23:22:16.235Z,90.40
2018-09-20T23:24:44.427Z,90.30
2018-09-20T23:27:12.695Z,90.30
2018-09-20T23:29:40.876Z,90.40
2018-09-20T23:32:09.072Z,90.40
2018-09-20T23:34:37.262Z,90.50
2018-09-20T23:37:05.466Z,90.50
2018-09-20T23:39:33.663Z,90.40
2018-09-20T23:42:01.880Z,90.50
2018-09-20T23:44:30.113Z,90.70
2018-09-20T23:46:58.292Z,90.60
2018-09-20T23:49:26.511Z,90.60
2018-09-20T23:51:54.699Z,90.60
2018-09-20T23:54:22.899Z,90.60
2018-09-20T23:56:51.086Z,90.60
2018-09-20T23:59:19.271Z,90.70
